createdAt,value
2023-04-24T00:01:44.658Z,74.00
2023-04-24T00:04:12.262Z,74.30
2023-04-24T00:06:39.693Z,74.30
2023-04-24T00:09:07.071Z,74.20
2023-04-24T00:11:34.297Z,74.30
2023-04-24T00:14:01.725Z,74.30
2023-04-24T00:16:29.322Z,74.10
2023-04-24T00:18:56.681Z,74.20
2023-04-24T00:21:26.524Z,74.30
2023-04-24T00:23:54.354Z,74.30
2023-04-24T00:26:21.654Z,74.40
2023-04-24T00:28:48.916Z,74.20
2023-04-24T00:31:16.152Z,74.10
2023-04-24T00:33:43.563Z,74.10
2023-04-24T00:36:10.922Z,73.90
2023-04-24T00:38:38.127Z,73.80
2023-04-24T00:41:05.772Z,74.00
2023-04-24T00:43:33.062Z,74.10
2023-04-24T00:46:02.589Z,73.90
2023-04-24T00:48:30.462Z,73.90
2023-04-24T00:50:59.601Z,73.80
2023-04-24T00:53:26.978Z,73.80
2023-04-24T00:55:54.596Z,73.80
2023-04-24T00:58:21.972Z,73.80
2023-04-24T01:00:53.975Z,73.90
2023-04-24T01:03:23.728Z,74.10
2023-04-24T01:05:51.443Z,74.10
2023-04-24T01:08:20.985Z,73.80
2023-04-24T01:10:49.492Z,73.90
2023-04-24T01:13:16.898Z,74.00
2023-04-24T01:15:46.275Z,74.00
2023-04-24T01:18:14.456Z,74.20
2023-04-24T01:20:43.542Z,74.50
2023-04-24T01:23:11.464Z,74.50
2023-04-24T01:25:38.797Z,74.50
2023-04-24T01:28:06.178Z,74.60
2023-04-24T01:30:33.520Z,74.70
2023-04-24T01:33:01.736Z,74.90
2023-04-24T01:35:29.166Z,74.90
2023-04-24T01:37:56.545Z,75.00
2023-04-24T01:40:23.992Z,75.10
2023-04-24T01:42:52.032Z,75.10
2023-04-24T01:45:19.433Z,75.10
2023-04-24T01:47:47.692Z,75.40
2023-04-24T01:50:15.111Z,75.40
2023-04-24T01:52:43.236Z,75.30
2023-04-24T01:55:11.481Z,75.30
2023-04-24T01:57:39.040Z,75.40
2023-04-24T02:00:08.130Z,75.30
2023-04-24T02:02:44.944Z,75.30
2023-04-24T02:05:14.179Z,75.40
2023-04-24T02:07:41.496Z,75.30
2023-04-24T02:10:10.842Z,75.30
2023-04-24T02:12:43.024Z,75.60
2023-04-24T02:15:10.894Z,75.60
2023-04-24T02:17:38.860Z,75.70
2023-04-24T02:20:07.821Z,75.80
2023-04-24T02:22:35.082Z,75.80
2023-04-24T02:25:03.480Z,75.80
2023-04-24T02:27:31.291Z,75.80
2023-04-24T02:29:58.787Z,75.80
2023-04-24T02:32:26.157Z,75.80
2023-04-24T02:34:53.570Z,75.80
2023-04-24T02:37:21.038Z,75.90
2023-04-24T02:39:48.278Z,75.90
2023-04-24T02:42:16.474Z,76.10
2023-04-24T02:44:43.754Z,76.20
2023-04-24T02:47:11.158Z,76.20
2023-04-24T02:49:38.400Z,76.30
2023-04-24T02:52:06.118Z,76.30
2023-04-24T02:54:33.337Z,76.30
2023-04-24T02:57:01.986Z,76.40
2023-04-24T02:59:29.889Z,76.30
2023-04-24T03:01:57.077Z,76.30
2023-04-24T03:04:24.485Z,76.20
2023-04-24T03:06:53.824Z,76.20
2023-04-24T03:09:24.527Z,76.20
2023-04-24T03:11:51.800Z,76.20
2023-04-24T03:14:19.036Z,77.00
2023-04-24T03:16:46.449Z,76.20
2023-04-24T03:19:13.792Z,76.20
2023-04-24T03:22:02.313Z,76.20
2023-04-24T03:24:31.642Z,76.20
2023-04-24T03:26:59.308Z,76.20
2023-04-24T03:29:46.064Z,76.30
2023-04-24T03:32:13.782Z,76.20
2023-04-24T03:34:41.051Z,76.30
2023-04-24T03:37:13.539Z,76.30
2023-04-24T03:39:45.624Z,76.20
2023-04-24T03:42:13.998Z,76.20
2023-04-24T03:44:51.206Z,76.20
2023-04-24T03:47:20.022Z,76.20
2023-04-24T03:49:48.507Z,76.30
2023-04-24T03:52:15.910Z,76.30
2023-04-24T03:54:43.810Z,76.20
2023-04-24T03:57:12.663Z,76.20
2023-04-24T03:59:48.019Z,76.20
2023-04-24T04:02:19.040Z,76.20
2023-04-24T04:04:46.782Z,76.20
2023-04-24T04:07:14.478Z,76.20
2023-04-24T04:09:42.170Z,76.20
2023-04-24T04:12:09.807Z,77.00
2023-04-24T04:14:39.461Z,76.30
2023-04-24T04:17:06.776Z,76.30
2023-04-24T04:19:34.479Z,76.30
2023-04-24T04:22:01.896Z,76.30
2023-04-24T04:24:41.731Z,76.30
2023-04-24T04:27:10.602Z,76.30
2023-04-24T04:29:46.693Z,76.30
2023-04-24T04:32:16.343Z,76.30
2023-04-24T04:34:46.155Z,76.30
2023-04-24T04:37:13.793Z,76.20
2023-04-24T04:39:54.537Z,76.20
2023-04-24T04:42:25.941Z,76.00
2023-04-24T04:44:54.105Z,76.00
2023-04-24T04:47:29.657Z,75.80
2023-04-24T04:49:58.179Z,75.80
2023-04-24T04:52:28.560Z,75.90
2023-04-24T04:55:25.339Z,76.00
2023-04-24T04:58:25.293Z,75.90
2023-04-24T05:00:58.258Z,75.90
2023-04-24T05:03:37.151Z,75.80
2023-04-24T05:06:08.350Z,75.90
2023-04-24T05:08:38.921Z,75.80
2023-04-24T05:11:09.851Z,75.80
2023-04-24T05:13:41.082Z,75.90
2023-04-24T05:16:14.264Z,75.80
2023-04-24T05:18:42.394Z,75.70
2023-04-24T05:21:12.456Z,75.80
2023-04-24T05:23:42.586Z,76.00
2023-04-24T05:26:15.057Z,75.70
2023-04-24T05:28:42.600Z,75.70
2023-04-24T05:31:13.447Z,75.70
2023-04-24T05:33:41.030Z,75.70
2023-04-24T05:36:08.648Z,75.60
2023-04-24T05:38:36.238Z,75.60
2023-04-24T05:41:03.905Z,75.40
2023-04-24T05:43:31.386Z,75.50
2023-04-24T05:45:58.952Z,75.60
2023-04-24T05:48:27.045Z,75.60
2023-04-24T05:50:54.638Z,75.60
2023-04-24T05:53:22.539Z,75.30
2023-04-24T05:55:50.586Z,75.70
2023-04-24T05:58:18.224Z,75.00
2023-04-24T06:00:48.003Z,74.80
2023-04-24T06:03:15.879Z,74.70
2023-04-24T06:05:43.788Z,74.50
2023-04-24T06:08:12.514Z,74.10
2023-04-24T06:10:41.220Z,73.80
2023-04-24T06:13:09.872Z,73.70
2023-04-24T06:15:41.663Z,73.40
2023-04-24T06:18:13.464Z,73.30
2023-04-24T06:20:42.718Z,73.90
2023-04-24T06:23:10.867Z,72.40
2023-04-24T06:25:39.426Z,72.00
2023-04-24T06:28:06.929Z,71.40
2023-04-24T06:30:34.380Z,71.10
2023-04-24T06:33:12.834Z,71.10
2023-04-24T06:35:47.556Z,71.00
2023-04-24T06:38:15.143Z,70.70
2023-04-24T06:40:45.046Z,70.30
2023-04-24T06:43:12.853Z,69.90
2023-04-24T06:45:40.801Z,69.40
2023-04-24T06:48:08.530Z,68.60
2023-04-24T06:50:36.254Z,68.50
2023-04-24T06:53:03.957Z,68.70
2023-04-24T06:55:31.795Z,68.00
2023-04-24T06:57:59.609Z,68.10
2023-04-24T07:00:27.109Z,67.70
2023-04-24T07:02:54.654Z,67.10
2023-04-24T07:05:22.181Z,67.10
2023-04-24T07:07:50.612Z,67.40
2023-04-24T07:10:19.074Z,67.80
2023-04-24T07:12:47.310Z,67.80
2023-04-24T07:15:14.839Z,68.30
2023-04-24T07:17:44.602Z,68.20
2023-04-24T07:20:12.810Z,68.50
2023-04-24T07:22:40.517Z,68.80
2023-04-24T07:25:09.439Z,69.30
2023-04-24T07:27:37.107Z,69.60
2023-04-24T07:30:05.863Z,69.60
2023-04-24T07:32:33.261Z,70.10
2023-04-24T07:35:00.976Z,70.50
2023-04-24T07:37:29.461Z,70.80
2023-04-24T07:39:57.151Z,71.20
2023-04-24T07:42:24.601Z,70.80
2023-04-24T07:44:52.180Z,70.40
2023-04-24T07:47:19.698Z,69.40
2023-04-24T07:49:47.539Z,68.40
2023-04-24T07:52:15.058Z,68.50
2023-04-24T07:54:44.144Z,68.50
2023-04-24T07:57:11.826Z,67.20
2023-04-24T07:59:39.272Z,67.10
2023-04-24T08:02:07.447Z,65.00
2023-04-24T08:04:35.150Z,63.40
2023-04-24T08:07:02.694Z,61.50
2023-04-24T08:09:30.334Z,60.10
2023-04-24T08:11:57.733Z,58.20
2023-04-24T08:14:25.216Z,58.50
2023-04-24T08:16:56.815Z,58.40
2023-04-24T08:19:24.746Z,58.50
2023-04-24T08:21:52.159Z,58.50
2023-04-24T08:24:19.688Z,58.40
2023-04-24T08:26:47.174Z,58.10
2023-04-24T08:29:14.600Z,57.70
2023-04-24T08:31:42.435Z,56.90
2023-04-24T08:34:11.094Z,57.00
2023-04-24T08:36:46.394Z,57.00
2023-04-24T08:39:15.646Z,57.20
2023-04-24T08:41:44.151Z,57.30
2023-04-24T08:44:12.402Z,57.20
2023-04-24T08:46:41.742Z,56.60
2023-04-24T08:49:09.393Z,55.90
2023-04-24T08:51:38.760Z,56.00
2023-04-24T08:54:06.516Z,55.60
2023-04-24T08:56:35.292Z,55.30
2023-04-24T08:59:03.032Z,55.50
2023-04-24T09:01:32.969Z,55.60
2023-04-24T09:04:04.710Z,55.60
2023-04-24T09:06:33.141Z,55.40
2023-04-24T09:09:04.483Z,55.70
2023-04-24T09:11:33.566Z,54.60
2023-04-24T09:14:02.349Z,54.90
2023-04-24T09:16:30.790Z,53.80
2023-04-24T09:18:58.600Z,54.30
2023-04-24T09:21:35.870Z,53.80
2023-04-24T09:24:06.317Z,51.70
2023-04-24T09:26:36.671Z,51.60
2023-04-24T09:29:05.368Z,50.20
2023-04-24T09:31:32.778Z,49.60
2023-04-24T09:34:02.641Z,50.40
2023-04-24T09:36:34.165Z,50.80
2023-04-24T09:39:02.976Z,50.90
2023-04-24T09:41:30.740Z,51.10
2023-04-24T09:44:02.514Z,52.00
2023-04-24T09:46:32.876Z,51.50
2023-04-24T09:49:17.139Z,51.80
2023-04-24T09:51:44.737Z,52.10
2023-04-24T09:54:19.400Z,52.30
2023-04-24T09:56:48.883Z,52.60
2023-04-24T09:59:18.299Z,53.20
2023-04-24T10:01:46.627Z,52.10
2023-04-24T10:04:23.925Z,51.90
2023-04-24T10:06:53.347Z,51.40
2023-04-24T10:09:22.715Z,51.50
2023-04-24T10:11:52.538Z,51.30
2023-04-24T10:14:25.146Z,52.00
2023-04-24T10:16:55.665Z,52.40
2023-04-24T10:19:27.020Z,52.00
2023-04-24T10:21:56.612Z,52.00
2023-04-24T10:24:24.144Z,52.40
2023-04-24T10:26:51.755Z,52.10
2023-04-24T10:29:20.918Z,51.70
2023-04-24T10:31:48.713Z,51.00
2023-04-24T10:34:19.262Z,51.50
2023-04-24T10:36:51.841Z,51.70
2023-04-24T10:39:20.685Z,51.90
2023-04-24T10:41:58.809Z,51.80
2023-04-24T10:44:26.412Z,51.00
2023-04-24T10:46:56.181Z,50.80
2023-04-24T10:49:32.259Z,50.40
2023-04-24T10:52:06.565Z,50.00
2023-04-24T10:54:41.978Z,49.90
2023-04-24T10:57:22.948Z,50.20
2023-04-24T11:00:10.396Z,50.20
2023-04-24T11:02:40.047Z,50.30
2023-04-24T11:05:08.541Z,50.70
2023-04-24T11:08:15.176Z,50.30
2023-04-24T11:10:47.638Z,50.20
2023-04-24T11:13:22.215Z,50.40
2023-04-24T11:16:13.175Z,50.70
2023-04-24T11:18:46.028Z,50.80
2023-04-24T11:21:14.339Z,50.60
2023-04-24T11:23:42.164Z,51.90
2023-04-24T11:26:15.173Z,50.50
2023-04-24T11:28:49.990Z,51.30
2023-04-24T11:31:42.023Z,51.70
2023-04-24T11:34:11.781Z,51.90
2023-04-24T11:36:40.180Z,51.20
2023-04-24T11:39:07.759Z,51.30
2023-04-24T11:41:36.503Z,51.00
2023-04-24T11:44:06.598Z,49.80
2023-04-24T11:46:34.096Z,49.70
2023-04-24T11:49:01.823Z,50.20
2023-04-24T11:51:33.842Z,50.60
2023-04-24T11:54:09.121Z,49.00
2023-04-24T11:56:36.496Z,48.70
2023-04-24T11:59:05.559Z,48.90
2023-04-24T12:01:46.889Z,48.50
2023-04-24T12:04:15.682Z,49.00
2023-04-24T12:07:03.101Z,48.50
2023-04-24T12:09:47.604Z,47.40
2023-04-24T12:12:17.670Z,47.10
2023-04-24T12:14:49.778Z,47.00
2023-04-24T12:17:18.074Z,47.10
2023-04-24T12:19:49.532Z,47.30
2023-04-24T12:22:17.417Z,46.50
2023-04-24T12:25:03.161Z,46.40
2023-04-24T12:27:33.154Z,46.80
2023-04-24T12:30:02.585Z,47.30
2023-04-24T12:32:29.970Z,47.40
2023-04-24T12:34:57.628Z,47.40
2023-04-24T12:37:26.628Z,47.60
2023-04-24T12:40:08.387Z,47.50
2023-04-24T12:42:37.303Z,47.80
2023-04-24T12:45:08.927Z,48.60
2023-04-24T12:47:37.291Z,49.20
2023-04-24T12:50:05.697Z,48.40
2023-04-24T12:52:33.528Z,48.90
2023-04-24T12:55:02.068Z,49.10
2023-04-24T12:57:31.057Z,48.30
2023-04-24T12:59:59.739Z,47.30
2023-04-24T13:02:31.338Z,47.50
2023-04-24T13:04:59.920Z,47.70
2023-04-24T13:07:28.349Z,47.00
2023-04-24T13:09:57.000Z,46.80
2023-04-24T13:12:25.053Z,46.90
2023-04-24T13:14:52.899Z,47.80
2023-04-24T13:17:20.789Z,48.60
2023-04-24T13:19:51.873Z,49.20
2023-04-24T13:22:22.374Z,49.70
2023-04-24T13:24:49.974Z,49.90
2023-04-24T13:27:18.472Z,49.50
2023-04-24T13:29:46.359Z,48.10
2023-04-24T13:32:13.940Z,48.70
2023-04-24T13:34:41.427Z,49.00
2023-04-24T13:37:09.080Z,49.20
2023-04-24T13:39:36.589Z,50.00
2023-04-24T13:42:05.071Z,50.40
2023-04-24T13:44:32.788Z,50.00
2023-04-24T13:47:00.692Z,50.00
2023-04-24T13:49:28.540Z,49.80
2023-04-24T13:51:57.087Z,49.60
2023-04-24T13:54:26.698Z,49.70
2023-04-24T13:56:54.728Z,49.80
2023-04-24T13:59:22.649Z,49.50
2023-04-24T14:01:50.399Z,49.80
2023-04-24T14:04:18.262Z,50.20
2023-04-24T14:06:45.889Z,50.00
2023-04-24T14:09:13.849Z,50.00
2023-04-24T14:11:41.673Z,49.50
2023-04-24T14:14:09.243Z,49.10
2023-04-24T14:16:36.617Z,48.80
2023-04-24T14:19:05.880Z,48.40
2023-04-24T14:21:33.848Z,48.20
2023-04-24T14:24:01.252Z,48.70
2023-04-24T14:26:28.898Z,48.80
2023-04-24T14:29:03.972Z,49.40
2023-04-24T14:31:38.804Z,49.30
2023-04-24T14:34:06.091Z,48.70
2023-04-24T14:36:33.454Z,47.90
2023-04-24T14:39:00.808Z,47.70
2023-04-24T14:41:28.000Z,47.80
2023-04-24T14:43:55.326Z,47.80
2023-04-24T14:46:22.757Z,47.90
2023-04-24T14:48:50.010Z,48.20
2023-04-24T14:51:17.353Z,48.00
2023-04-24T14:53:44.842Z,48.40
2023-04-24T14:56:12.376Z,48.40
2023-04-24T14:58:39.892Z,48.20
2023-04-24T15:01:07.524Z,48.40
2023-04-24T15:03:35.112Z,49.00
2023-04-24T15:06:02.863Z,49.70
2023-04-24T15:08:30.515Z,51.30
2023-04-24T15:10:58.057Z,52.90
2023-04-24T15:13:25.979Z,54.40
2023-04-24T15:15:53.426Z,55.50
2023-04-24T15:18:20.775Z,56.10
2023-04-24T15:20:48.140Z,57.10
2023-04-24T15:23:15.635Z,58.00
2023-04-24T15:25:43.099Z,58.90
2023-04-24T15:28:11.057Z,58.70
2023-04-24T15:30:38.526Z,59.90
2023-04-24T15:33:06.619Z,60.00
2023-04-24T15:35:34.827Z,60.60
2023-04-24T15:38:03.308Z,60.60
2023-04-24T15:40:31.198Z,60.90
2023-04-24T15:42:58.817Z,61.50
2023-04-24T15:45:26.272Z,61.60
2023-04-24T15:47:53.742Z,62.30
2023-04-24T15:50:22.613Z,62.30
2023-04-24T15:52:50.238Z,61.80
2023-04-24T15:55:17.795Z,61.70
2023-04-24T15:57:45.357Z,61.80
2023-04-24T16:00:13.653Z,61.40
2023-04-24T16:02:41.150Z,61.20
2023-04-24T16:05:09.563Z,60.20
2023-04-24T16:07:38.671Z,59.60
2023-04-24T16:10:07.144Z,59.80
2023-04-24T16:12:34.877Z,59.80
2023-04-24T16:15:03.057Z,59.80
2023-04-24T16:17:30.561Z,60.00
2023-04-24T16:19:57.942Z,59.70
2023-04-24T16:22:25.347Z,59.50
2023-04-24T16:24:53.418Z,59.50
2023-04-24T16:27:20.989Z,60.00
2023-04-24T16:29:48.486Z,60.00
2023-04-24T16:32:16.190Z,59.00
2023-04-24T16:34:43.781Z,59.80
2023-04-24T16:37:12.210Z,60.00
2023-04-24T16:39:43.963Z,60.10
2023-04-24T16:42:15.621Z,61.20
2023-04-24T16:44:43.282Z,62.40
2023-04-24T16:47:14.086Z,63.50
2023-04-24T16:49:41.886Z,64.30
2023-04-24T16:52:10.790Z,64.30
2023-04-24T16:54:38.069Z,65.20
2023-04-24T16:57:07.681Z,65.00
2023-04-24T16:59:35.330Z,65.20
2023-04-24T17:02:02.722Z,64.80
2023-04-24T17:04:30.462Z,64.10
2023-04-24T17:06:58.050Z,64.00
2023-04-24T17:09:25.560Z,63.80
2023-04-24T17:11:53.031Z,64.10
2023-04-24T17:14:20.487Z,64.00
2023-04-24T17:16:47.821Z,63.70
2023-04-24T17:19:15.602Z,63.80
2023-04-24T17:21:42.784Z,63.60
2023-04-24T17:24:10.117Z,63.60
2023-04-24T17:26:37.676Z,63.20
2023-04-24T17:29:05.421Z,63.10
2023-04-24T17:31:32.876Z,63.10
2023-04-24T17:34:00.341Z,63.20
2023-04-24T17:36:27.827Z,63.20
2023-04-24T17:38:55.096Z,63.20
2023-04-24T17:41:22.643Z,63.20
2023-04-24T17:43:50.005Z,63.50
2023-04-24T17:46:17.915Z,63.20
2023-04-24T17:48:46.985Z,63.00
2023-04-24T17:51:15.807Z,62.90
2023-04-24T17:53:43.304Z,62.90
2023-04-24T17:56:10.674Z,63.60
2023-04-24T17:58:38.039Z,63.80
2023-04-24T18:01:05.695Z,61.90
2023-04-24T18:03:33.277Z,61.40
2023-04-24T18:06:00.797Z,61.10
2023-04-24T18:08:28.197Z,61.60
2023-04-24T18:10:55.907Z,61.50
2023-04-24T18:13:23.250Z,61.70
2023-04-24T18:15:50.922Z,61.70
2023-04-24T18:18:18.503Z,62.20
2023-04-24T18:20:46.584Z,62.60
2023-04-24T18:23:14.011Z,62.90
2023-04-24T18:25:41.315Z,63.30
2023-04-24T18:28:08.743Z,63.30
2023-04-24T18:30:36.647Z,63.10
2023-04-24T18:33:04.737Z,63.30
2023-04-24T18:35:32.281Z,63.60
2023-04-24T18:37:59.849Z,63.70
2023-04-24T18:40:27.273Z,64.00
2023-04-24T18:42:56.744Z,63.50
2023-04-24T18:45:24.137Z,63.50
2023-04-24T18:47:51.789Z,63.80
2023-04-24T18:50:19.375Z,64.10
2023-04-24T18:52:47.141Z,64.00
2023-04-24T18:55:14.656Z,63.90
2023-04-24T18:57:42.054Z,63.90
2023-04-24T19:00:09.821Z,63.60
2023-04-24T19:02:37.316Z,63.60
2023-04-24T19:05:05.030Z,63.70
2023-04-24T19:07:32.633Z,63.90
2023-04-24T19:09:59.943Z,64.10
2023-04-24T19:12:27.404Z,64.00
2023-04-24T19:14:56.086Z,63.90
2023-04-24T19:17:25.155Z,63.60
2023-04-24T19:19:52.942Z,63.60
2023-04-24T19:22:23.131Z,63.70
2023-04-24T19:24:50.672Z,63.70
2023-04-24T19:27:18.182Z,64.00
2023-04-24T19:29:46.032Z,64.00
2023-04-24T19:32:13.536Z,64.40
2023-04-24T19:34:41.115Z,64.50
2023-04-24T19:37:08.690Z,64.80
2023-04-24T19:39:35.988Z,64.60
2023-04-24T19:42:07.225Z,64.50
2023-04-24T19:44:35.028Z,64.80
2023-04-24T19:47:02.809Z,64.90
2023-04-24T19:49:30.706Z,65.50
2023-04-24T19:51:58.134Z,65.70
2023-04-24T19:54:26.075Z,66.00
2023-04-24T19:56:53.270Z,66.20
2023-04-24T19:59:20.995Z,66.20
2023-04-24T20:01:48.547Z,65.90
2023-04-24T20:04:16.280Z,66.00
2023-04-24T20:06:43.802Z,66.40
2023-04-24T20:09:11.185Z,66.60
2023-04-24T20:11:38.580Z,66.40
2023-04-24T20:14:06.196Z,66.50
2023-04-24T20:16:33.475Z,66.50
2023-04-24T20:19:00.962Z,66.70
2023-04-24T20:21:28.874Z,66.50
2023-04-24T20:23:56.625Z,66.60
2023-04-24T20:26:23.829Z,66.80
2023-04-24T20:28:51.432Z,66.90
2023-04-24T20:31:19.704Z,67.00
2023-04-24T20:33:47.211Z,66.80
2023-04-24T20:36:14.458Z,66.80
2023-04-24T20:38:41.716Z,66.60
2023-04-24T20:41:10.176Z,66.60
2023-04-24T20:43:37.548Z,66.30
2023-04-24T20:46:05.521Z,66.60
2023-04-24T20:48:32.963Z,66.40
2023-04-24T20:51:00.359Z,66.70
2023-04-24T20:53:28.386Z,66.90
2023-04-24T20:55:55.761Z,67.10
2023-04-24T20:58:23.792Z,67.20
2023-04-24T21:00:51.745Z,67.30
2023-04-24T21:03:19.656Z,67.70
2023-04-24T21:05:47.110Z,67.50
2023-04-24T21:08:14.716Z,67.50
2023-04-24T21:10:42.018Z,67.50
2023-04-24T21:13:09.473Z,67.40
2023-04-24T21:15:36.998Z,67.30
2023-04-24T21:18:04.984Z,67.40
2023-04-24T21:20:32.554Z,67.40
2023-04-24T21:22:59.937Z,67.30
2023-04-24T21:25:27.900Z,67.20
2023-04-24T21:27:56.057Z,67.20
2023-04-24T21:30:23.543Z,67.20
2023-04-24T21:32:52.127Z,67.00
2023-04-24T21:35:19.846Z,66.90
2023-04-24T21:37:47.223Z,66.80
2023-04-24T21:40:16.000Z,66.70
2023-04-24T21:42:43.503Z,66.70
2023-04-24T21:45:11.368Z,66.60
2023-04-24T21:47:39.000Z,66.60
2023-04-24T21:50:07.094Z,66.80
2023-04-24T21:52:34.574Z,67.00
2023-04-24T21:55:02.026Z,66.90
2023-04-24T21:57:29.759Z,66.90
2023-04-24T21:59:57.151Z,67.00
2023-04-24T22:02:24.676Z,67.30
2023-04-24T22:04:52.845Z,67.30
2023-04-24T22:07:20.516Z,67.30
2023-04-24T22:09:47.882Z,67.20
2023-04-24T22:12:15.310Z,67.40
2023-04-24T22:14:42.733Z,67.80
2023-04-24T22:17:10.365Z,67.90
2023-04-24T22:19:37.779Z,68.00
2023-04-24T22:22:05.210Z,68.00
2023-04-24T22:24:32.471Z,68.10
2023-04-24T22:26:59.833Z,68.00
2023-04-24T22:29:27.138Z,68.00
2023-04-24T22:31:56.628Z,67.80
2023-04-24T22:34:24.225Z,67.60
2023-04-24T22:36:51.407Z,67.80
2023-04-24T22:39:19.604Z,67.80
2023-04-24T22:41:47.441Z,68.10
2023-04-24T22:44:14.897Z,68.00
2023-04-24T22:46:42.089Z,68.10
2023-04-24T22:49:10.337Z,68.30
2023-04-24T22:51:37.624Z,68.30
2023-04-24T22:54:05.207Z,68.30
2023-04-24T22:56:33.562Z,68.30
2023-04-24T22:59:00.859Z,68.50
2023-04-24T23:01:29.289Z,68.60
2023-04-24T23:03:56.662Z,68.70
2023-04-24T23:06:23.970Z,68.70
2023-04-24T23:08:51.196Z,68.50
2023-04-24T23:11:19.806Z,68.50
2023-04-24T23:13:47.325Z,68.50
2023-04-24T23:16:14.688Z,68.50
2023-04-24T23:18:42.054Z,68.40
2023-04-24T23:21:09.382Z,68.30
2023-04-24T23:23:36.586Z,68.10
2023-04-24T23:26:04.204Z,68.20
2023-04-24T23:28:31.586Z,68.00
2023-04-24T23:30:58.920Z,68.00
2023-04-24T23:33:26.233Z,67.90
2023-04-24T23:35:53.493Z,68.10
2023-04-24T23:38:20.842Z,68.20
2023-04-24T23:40:50.411Z,68.30
2023-04-24T23:43:18.504Z,68.20
2023-04-24T23:45:46.116Z,68.00
2023-04-24T23:48:13.505Z,68.80
2023-04-24T23:50:40.847Z,67.90
2023-04-24T23:53:08.133Z,67.90
2023-04-24T23:55:35.730Z,67.80
2023-04-24T23:58:03.777Z,67.90
